Time;durP1;ratioP1;P1;durP2;ratioP2;P2;SDS_P1;SDS_P2;PMS_P1;PMS_P2;Temp;Humidity;BMP_temperature;BMP_pressure;BME280_temperature;BME280_humidity;BME280_pressure;Samples;Min_cycle;Max_cycle;Signal;HPM_P1;HPM_P2
2023/04/10 00:00:18;;;;;;;66.25;57.05;;;;;;;;;;4994291;28;20176;-77
2023/04/10 00:02:43;;;;;;;55.15;46.35;;;;;;;;;;4988275;28;20037;-77
2023/04/10 00:05:09;;;;;;;44.90;40.15;;;;;;;;;;4989449;28;20456;-77
2023/04/10 00:07:34;;;;;;;41.40;37.00;;;;;;;;;;4982341;28;20018;-76
2023/04/10 00:10:00;;;;;;;40.65;35.25;;;;;;;;;;4996049;28;20084;-75
2023/04/10 00:12:26;;;;;;;37.97;34.00;;;;;;;;;;4990892;28;20033;-76
2023/04/10 00:14:51;;;;;;;35.45;31.75;;;;;;;;;;4993799;28;20471;-78
2023/04/10 00:17:16;;;;;;;35.75;32.05;;;;;;;;;;4990753;28;20038;-78
2023/04/10 00:19:41;;;;;;;46.30;41.30;;;;;;;;;;4992500;28;20026;-77
2023/04/10 00:22:07;;;;;;;46.00;40.40;;;;;;;;;;4987583;28;20034;-78
2023/04/10 00:24:33;;;;;;;63.05;51.95;;;;;;;;;;4991351;28;20025;-78
2023/04/10 00:26:58;;;;;;;53.83;45.92;;;;;;;;;;4996287;28;20409;-78
2023/04/10 00:29:23;;;;;;;56.90;48.05;;;;;;;;;;4996725;28;20038;-78
2023/04/10 00:31:49;;;;;;;44.05;38.58;;;;;;;;;;4997534;28;20125;-78
2023/04/10 00:34:15;;;;;;;36.45;32.75;;;;;;;;;;4996302;28;20114;-77
2023/04/10 00:36:40;;;;;;;31.33;28.23;;;;;;;;;;4996321;28;20038;-76
2023/04/10 00:39:06;;;;;;;31.73;28.63;;;;;;;;;;4989251;28;20069;-78
2023/04/10 00:41:31;;;;;;;32.92;29.73;;;;;;;;;;4995440;28;20038;-76
2023/04/10 00:43:57;;;;;;;31.05;28.05;;;;;;;;;;4986535;28;20342;-77
2023/04/10 00:46:26;;;;;;;32.28;29.08;;;;;;;;;;5006927;28;20397;-79
2023/04/10 00:48:52;;;;;;;33.03;29.83;;;;;;;;;;4982540;28;20030;-78
2023/04/10 00:51:19;;;;;;;32.45;29.20;;;;;;;;;;4982373;28;20061;-78
2023/04/10 00:53:50;;;;;;;43.67;39.20;;;;;;;;;;4985925;28;20029;-77
2023/04/10 00:56:15;;;;;;;34.28;30.88;;;;;;;;;;4996545;28;20379;-78
2023/04/10 00:58:41;;;;;;;33.92;30.50;;;;;;;;;;4993341;28;20045;-76
2023/04/10 01:01:07;;;;;;;32.75;29.40;;;;;;;;;;4994806;28;20046;-78
2023/04/10 01:03:32;;;;;;;33.53;30.10;;;;;;;;;;5024912;28;20041;-79
2023/04/10 01:06:10;;;;;;;32.72;29.63;;;;;;;;;;4987169;28;20021;-80
2023/04/10 01:08:45;;;;;;;33.45;30.23;;;;;;;;;;4984378;28;20030;-77
2023/04/10 01:11:30;;;;;;;34.33;30.70;;;;;;;;;;4992150;28;20081;-78
2023/04/10 01:14:14;;;;;;;35.15;31.58;;;;;;;;;;4984599;28;20038;-78
2023/04/10 01:16:48;;;;;;;35.13;31.63;;;;;;;;;;4995765;28;20073;-80
2023/04/10 01:19:32;;;;;;;39.22;35.22;;;;;;;;;;4996446;28;20030;-78
2023/04/10 01:21:58;;;;;;;49.63;44.53;;;;;;;;;;4994212;28;20037;-78
2023/04/10 01:24:35;;;;;;;56.05;48.28;;;;;;;;;;4994974;28;20030;-78
2023/04/10 01:27:19;;;;;;;55.35;47.55;;;;;;;;;;4995769;28;20049;-77
2023/04/10 01:29:46;;;;;;;62.03;51.17;;;;;;;;;;4997043;28;20446;-81
2023/04/10 01:32:13;;;;;;;57.55;50.53;;;;;;;;;;4998755;28;20030;-79
2023/04/10 01:34:52;;;;;;;66.75;56.17;;;;;;;;;;4990253;28;21956;-79
2023/04/10 01:37:20;;;;;;;69.07;58.67;;;;;;;;;;4996735;28;20022;-76
2023/04/10 01:39:48;;;;;;;70.90;59.83;;;;;;;;;;4999283;28;20026;-78
2023/04/10 01:42:15;;;;;;;67.90;59.08;;;;;;;;;;4999108;28;20025;-77
2023/04/10 01:44:44;;;;;;;68.65;57.28;;;;;;;;;;4999079;28;20458;-79
2023/04/10 01:47:13;;;;;;;69.10;60.80;;;;;;;;;;4997991;28;20518;-81
2023/04/10 01:49:43;;;;;;;48.78;42.45;;;;;;;;;;4989480;28;20034;-81
2023/04/10 01:52:09;;;;;;;40.95;36.65;;;;;;;;;;4991199;28;20105;-82
2023/04/10 01:54:35;;;;;;;41.92;37.53;;;;;;;;;;4994208;28;20030;-80
2023/04/10 01:57:01;;;;;;;40.67;36.58;;;;;;;;;;4999252;28;20029;-79
2023/04/10 01:59:26;;;;;;;38.10;34.30;;;;;;;;;;5000687;28;20023;-78
2023/04/10 02:01:58;;;;;;;37.47;33.72;;;;;;;;;;4999213;28;20084;-78
2023/04/10 02:04:25;;;;;;;38.80;34.78;;;;;;;;;;4995424;28;20088;-79
2023/04/10 02:06:56;;;;;;;41.45;37.20;;;;;;;;;;5000566;28;20032;-78
2023/04/10 02:09:27;;;;;;;54.88;48.53;;;;;;;;;;4998876;28;20077;-79
2023/04/10 02:11:57;;;;;;;69.88;60.00;;;;;;;;;;4998073;28;20030;-77
2023/04/10 02:14:27;;;;;;;55.75;47.03;;;;;;;;;;5000266;28;20424;-78
2023/04/10 02:16:54;;;;;;;51.25;45.60;;;;;;;;;;4988630;28;20045;-79
2023/04/10 02:19:20;;;;;;;48.60;43.25;;;;;;;;;;4999688;28;20042;-81
2023/04/10 02:21:46;;;;;;;51.03;42.28;;;;;;;;;;4995717;28;20052;-82
2023/04/10 02:24:11;;;;;;;52.03;43.60;;;;;;;;;;5001136;28;20030;-81
2023/04/10 02:26:43;;;;;;;60.08;51.33;;;;;;;;;;4998008;28;20030;-78
2023/04/10 02:29:08;;;;;;;65.18;55.10;;;;;;;;;;4996841;28;20030;-77
2023/04/10 02:31:33;;;;;;;72.45;60.53;;;;;;;;;;4992241;28;20058;-79
2023/04/10 02:33:59;;;;;;;64.47;52.85;;;;;;;;;;4990538;28;20029;-77
2023/04/10 02:36:24;;;;;;;60.83;50.53;;;;;;;;;;5031106;28;20341;-77
2023/04/10 02:38:49;;;;;;;59.80;50.47;;;;;;;;;;4993948;28;20048;-77
2023/04/10 02:41:15;;;;;;;63.78;52.97;;;;;;;;;;4992645;28;20128;-77
2023/04/10 02:43:40;;;;;;;57.53;47.95;;;;;;;;;;4999247;28;20030;-78
2023/04/10 02:46:05;;;;;;;97.05;80.50;;;;;;;;;;4997676;28;20026;-78
2023/04/10 02:48:31;;;;;;;123.15;105.93;;;;;;;;;;4985350;28;20141;-78
2023/04/10 02:50:56;;;;;;;98.43;86.15;;;;;;;;;;4998903;28;20030;-77
2023/04/10 02:53:22;;;;;;;77.35;66.35;;;;;;;;;;4998258;28;20025;-80
2023/04/10 02:55:47;;;;;;;67.78;57.38;;;;;;;;;;4998610;28;20029;-79
2023/04/10 02:58:12;;;;;;;71.07;60.33;;;;;;;;;;4999717;28;20030;-76
2023/04/10 03:00:38;;;;;;;67.38;56.85;;;;;;;;;;4987307;28;20025;-78
2023/04/10 03:03:03;;;;;;;69.80;58.00;;;;;;;;;;4998440;28;20433;-78
2023/04/10 03:05:29;;;;;;;59.75;50.13;;;;;;;;;;4998386;28;20034;-77
2023/04/10 03:07:54;;;;;;;54.53;48.40;;;;;;;;;;4999186;28;20355;-79
2023/04/10 03:10:20;;;;;;;63.00;56.05;;;;;;;;;;4998515;28;20026;-79
2023/04/10 03:12:45;;;;;;;76.38;65.13;;;;;;;;;;4991373;28;20062;-80
2023/04/10 03:15:11;;;;;;;104.78;89.07;;;;;;;;;;4994168;28;20323;-81
2023/04/10 03:17:36;;;;;;;108.18;89.28;;;;;;;;;;4995235;28;20021;-82
2023/04/10 03:20:02;;;;;;;155.80;114.57;;;;;;;;;;4997474;28;20034;-78
2023/04/10 03:22:30;;;;;;;124.80;98.07;;;;;;;;;;4988177;28;20032;-81
2023/04/10 03:24:56;;;;;;;106.10;88.55;;;;;;;;;;4995896;28;20077;-79
2023/04/10 03:27:22;;;;;;;92.85;78.93;;;;;;;;;;4992670;28;20169;-77
2023/04/10 03:29:47;;;;;;;57.25;50.97;;;;;;;;;;4996560;28;20025;-76
2023/04/10 03:32:12;;;;;;;52.25;46.67;;;;;;;;;;4994905;28;20034;-76
2023/04/10 03:34:38;;;;;;;47.78;42.58;;;;;;;;;;4998230;28;20033;-77
2023/04/10 03:37:03;;;;;;;53.78;47.17;;;;;;;;;;4997494;28;20080;-76
2023/04/10 03:39:28;;;;;;;64.32;52.28;;;;;;;;;;5024693;28;20033;-78
2023/04/10 03:41:54;;;;;;;64.88;54.42;;;;;;;;;;5009271;28;20045;-79
2023/04/10 03:44:19;;;;;;;90.82;80.85;;;;;;;;;;4985083;28;20431;-79
2023/04/10 03:46:44;;;;;;;212.10;185.35;;;;;;;;;;4995149;28;20133;-78
2023/04/10 03:49:10;;;;;;;249.32;221.88;;;;;;;;;;4993420;28;20037;-78
2023/04/10 03:51:35;;;;;;;144.90;121.47;;;;;;;;;;4984451;28;20096;-78
2023/04/10 03:54:00;;;;;;;128.57;113.10;;;;;;;;;;4983715;28;20046;-78
2023/04/10 03:56:26;;;;;;;96.53;81.57;;;;;;;;;;4973851;28;20077;-79
2023/04/10 03:58:51;;;;;;;69.85;55.00;;;;;;;;;;4973402;28;20074;-80
2023/04/10 04:01:16;;;;;;;77.05;66.75;;;;;;;;;;4972009;28;20069;-79
2023/04/10 04:03:42;;;;;;;74.47;64.55;;;;;;;;;;4976991;28;20792;-78
2023/04/10 04:06:07;;;;;;;76.65;61.05;;;;;;;;;;4983968;28;20108;-79
2023/04/10 04:08:35;;;;;;;78.80;65.07;;;;;;;;;;4986979;28;20437;-78
2023/04/10 04:11:00;;;;;;;85.90;71.07;;;;;;;;;;4996380;28;20357;-79
2023/04/10 04:13:26;;;;;;;104.60;86.18;;;;;;;;;;4997946;28;20041;-79
2023/04/10 04:15:51;;;;;;;110.38;94.95;;;;;;;;;;4984271;28;20025;-78
2023/04/10 04:18:16;;;;;;;104.80;89.38;;;;;;;;;;4995536;28;20898;-78
2023/04/10 04:20:42;;;;;;;92.75;78.78;;;;;;;;;;4994642;28;20109;-77
2023/04/10 04:23:07;;;;;;;80.60;68.65;;;;;;;;;;4979403;28;20511;-80
2023/04/10 04:25:35;;;;;;;81.35;70.40;;;;;;;;;;4987383;28;20469;-79
2023/04/10 04:28:00;;;;;;;64.93;56.42;;;;;;;;;;4997795;28;20033;-78
2023/04/10 04:30:25;;;;;;;62.97;50.78;;;;;;;;;;4996785;28;21078;-77
2023/04/10 04:32:51;;;;;;;63.63;50.60;;;;;;;;;;4984686;28;20042;-78
2023/04/10 04:35:16;;;;;;;46.75;40.35;;;;;;;;;;4991930;28;20033;-78
2023/04/10 04:37:41;;;;;;;52.33;43.22;;;;;;;;;;4995339;28;20168;-79
2023/04/10 04:40:07;;;;;;;52.70;44.00;;;;;;;;;;4995817;28;20039;-79
2023/04/10 04:42:32;;;;;;;81.43;61.83;;;;;;;;;;4995512;28;20030;-77
2023/04/10 04:44:57;;;;;;;62.53;50.00;;;;;;;;;;4992892;28;20058;-78
2023/04/10 04:47:23;;;;;;;63.63;48.00;;;;;;;;;;4982647;28;20042;-79
2023/04/10 04:49:48;;;;;;;139.82;107.90;;;;;;;;;;4982885;28;20411;-80
2023/04/10 04:52:14;;;;;;;124.63;98.75;;;;;;;;;;4982090;28;20061;-79
2023/04/10 04:54:39;;;;;;;128.82;103.82;;;;;;;;;;4992344;28;20026;-78
2023/04/10 04:57:05;;;;;;;135.73;109.90;;;;;;;;;;4995725;28;20042;-78
2023/04/10 04:59:31;;;;;;;131.02;105.53;;;;;;;;;;4996050;28;20453;-79
2023/04/10 05:01:56;;;;;;;148.38;119.88;;;;;;;;;;4994635;28;20030;-77
2023/04/10 05:04:21;;;;;;;135.32;107.38;;;;;;;;;;4994687;28;20029;-81
2023/04/10 05:06:47;;;;;;;140.70;116.85;;;;;;;;;;4998964;28;20022;-78
2023/04/10 05:09:12;;;;;;;150.23;125.05;;;;;;;;;;4998442;28;20426;-79
2023/04/10 05:11:37;;;;;;;143.18;121.95;;;;;;;;;;5000610;28;20030;-79
2023/04/10 05:14:03;;;;;;;158.35;127.13;;;;;;;;;;4999766;28;20068;-80
2023/04/10 05:16:28;;;;;;;209.55;171.68;;;;;;;;;;4998465;28;20034;-80
2023/04/10 05:18:54;;;;;;;193.82;159.43;;;;;;;;;;4996172;28;20410;-79
2023/04/10 05:21:19;;;;;;;214.88;158.80;;;;;;;;;;4998475;28;20580;-78
2023/04/10 05:23:45;;;;;;;255.93;198.98;;;;;;;;;;4991104;28;20033;-76
2023/04/10 05:26:10;;;;;;;182.50;149.38;;;;;;;;;;4986025;28;20038;-77
2023/04/10 05:28:35;;;;;;;167.05;145.30;;;;;;;;;;4984872;28;20029;-77
2023/04/10 05:31:01;;;;;;;125.80;109.38;;;;;;;;;;4997014;28;20060;-77
2023/04/10 05:33:26;;;;;;;170.43;139.75;;;;;;;;;;4998703;28;20092;-79
2023/04/10 05:35:52;;;;;;;109.63;89.22;;;;;;;;;;4996603;28;20377;-78
2023/04/10 05:38:17;;;;;;;91.32;75.78;;;;;;;;;;4990621;28;20025;-78
2023/04/10 05:40:46;;;;;;;80.95;71.47;;;;;;;;;;4995032;28;20034;-76
2023/04/10 05:43:11;;;;;;;85.05;72.93;;;;;;;;;;4998742;28;20053;-76
2023/04/10 05:45:36;;;;;;;111.07;95.47;;;;;;;;;;4999777;28;20050;-76
2023/04/10 05:48:02;;;;;;;101.00;90.10;;;;;;;;;;4999456;28;20042;-75
2023/04/10 05:50:27;;;;;;;91.68;74.00;;;;;;;;;;4997353;28;20057;-76
2023/04/10 05:52:53;;;;;;;92.50;77.40;;;;;;;;;;4998049;28;20041;-77
2023/04/10 05:55:18;;;;;;;89.40;75.97;;;;;;;;;;4997587;28;20084;-77
2023/04/10 05:57:44;;;;;;;64.55;56.72;;;;;;;;;;4997881;28;20027;-76
2023/04/10 06:00:09;;;;;;;58.22;51.83;;;;;;;;;;4994083;28;20070;-76
2023/04/10 06:02:35;;;;;;;58.92;52.70;;;;;;;;;;4994728;28;20026;-76
2023/04/10 06:05:00;;;;;;;62.20;55.45;;;;;;;;;;4996321;28;20048;-76
2023/04/10 06:07:26;;;;;;;72.55;63.92;;;;;;;;;;4998894;28;20060;-76
2023/04/10 06:09:51;;;;;;;81.45;70.10;;;;;;;;;;4998601;28;20036;-76
2023/04/10 06:12:16;;;;;;;69.30;61.75;;;;;;;;;;4996695;28;20092;-77
2023/04/10 06:14:42;;;;;;;67.70;60.35;;;;;;;;;;4999318;28;20487;-79
2023/04/10 06:17:07;;;;;;;92.50;79.97;;;;;;;;;;4995158;28;20014;-76
2023/04/10 06:19:32;;;;;;;50.95;45.72;;;;;;;;;;4997458;28;20065;-78
2023/04/10 06:21:58;;;;;;;59.33;53.10;;;;;;;;;;4998145;28;20058;-76
2023/04/10 06:24:23;;;;;;;66.82;57.60;;;;;;;;;;4994862;28;20060;-76
2023/04/10 06:26:48;;;;;;;117.25;101.35;;;;;;;;;;4993433;28;20361;-76
2023/04/10 06:29:14;;;;;;;99.85;87.65;;;;;;;;;;4994837;28;20030;-76
2023/04/10 06:31:39;;;;;;;124.78;111.28;;;;;;;;;;5013475;28;20034;-75
2023/04/10 06:34:05;;;;;;;100.07;89.18;;;;;;;;;;4998212;28;20034;-75
2023/04/10 06:36:30;;;;;;;68.95;61.70;;;;;;;;;;4998441;28;20430;-78
2023/04/10 06:38:55;;;;;;;76.20;68.00;;;;;;;;;;4997566;28;20116;-75
2023/04/10 06:41:20;;;;;;;72.28;64.47;;;;;;;;;;4993516;28;20026;-76
2023/04/10 06:43:46;;;;;;;86.03;76.65;;;;;;;;;;4999108;28;20417;-76
2023/04/10 06:46:12;;;;;;;98.78;88.28;;;;;;;;;;4999252;28;20037;-76
2023/04/10 06:48:37;;;;;;;95.07;85.10;;;;;;;;;;4998388;28;20026;-75
2023/04/10 06:51:02;;;;;;;71.80;64.32;;;;;;;;;;4999140;28;20057;-76
2023/04/10 06:53:28;;;;;;;68.85;61.65;;;;;;;;;;4998251;28;20120;-75
2023/04/10 06:55:53;;;;;;;87.05;77.57;;;;;;;;;;4999087;28;20026;-75
2023/04/10 06:58:19;;;;;;;73.32;65.57;;;;;;;;;;4999713;28;20038;-75
2023/04/10 07:00:45;;;;;;;77.00;68.85;;;;;;;;;;4996994;28;20037;-75
2023/04/10 07:03:10;;;;;;;64.07;57.20;;;;;;;;;;4997817;28;20018;-77
2023/04/10 07:05:35;;;;;;;106.93;96.00;;;;;;;;;;4996887;28;20122;-77
2023/04/10 07:08:01;;;;;;;78.72;70.57;;;;;;;;;;4998001;28;20026;-76
2023/04/10 07:10:26;;;;;;;65.15;58.08;;;;;;;;;;4997522;28;20037;-76
2023/04/10 07:12:51;;;;;;;64.70;57.65;;;;;;;;;;4995904;28;20029;-75
2023/04/10 07:15:17;;;;;;;66.47;59.40;;;;;;;;;;4998021;28;20044;-76
2023/04/10 07:17:42;;;;;;;64.07;57.17;;;;;;;;;;4998154;28;20434;-75
2023/04/10 07:20:08;;;;;;;63.58;57.08;;;;;;;;;;4996773;28;20401;-76
2023/04/10 07:22:33;;;;;;;59.13;52.85;;;;;;;;;;4999175;28;20026;-76
2023/04/10 07:24:59;;;;;;;63.42;56.25;;;;;;;;;;4998832;28;20026;-76
2023/04/10 07:27:24;;;;;;;59.15;52.47;;;;;;;;;;4995330;28;20025;-78
2023/04/10 07:29:53;;;;;;;40.75;36.65;;;;;;;;;;4996768;28;20038;-76
2023/04/10 07:32:18;;;;;;;39.35;35.45;;;;;;;;;;4994999;28;20376;-78
2023/04/10 07:34:43;;;;;;;45.75;41.15;;;;;;;;;;4996213;28;20040;-75
2023/04/10 07:37:09;;;;;;;44.78;40.08;;;;;;;;;;4997478;28;20054;-75
2023/04/10 07:39:34;;;;;;;51.15;45.70;;;;;;;;;;4991674;28;20095;-76
2023/04/10 07:42:00;;;;;;;38.85;34.75;;;;;;;;;;5008168;28;20031;-75
2023/04/10 07:44:25;;;;;;;38.60;34.60;;;;;;;;;;4997535;28;20034;-76
2023/04/10 07:46:51;;;;;;;40.33;36.22;;;;;;;;;;4987085;28;20054;-76
2023/04/10 07:49:16;;;;;;;44.00;39.42;;;;;;;;;;4990867;28;20398;-75
2023/04/10 07:51:41;;;;;;;35.03;31.60;;;;;;;;;;4997497;28;20030;-74
2023/04/10 07:54:07;;;;;;;41.20;37.00;;;;;;;;;;4983860;28;20515;-76
2023/04/10 07:56:32;;;;;;;40.33;36.28;;;;;;;;;;4983689;28;20438;-76
2023/04/10 07:59:02;;;;;;;41.00;36.72;;;;;;;;;;4981974;28;20025;-77
2023/04/10 08:01:28;;;;;;;37.67;33.90;;;;;;;;;;4984320;28;20030;-75
2023/04/10 08:03:54;;;;;;;39.17;35.22;;;;;;;;;;4984068;28;20022;-75
2023/04/10 08:06:20;;;;;;;49.78;44.33;;;;;;;;;;4991560;28;20048;-76
2023/04/10 08:08:45;;;;;;;42.03;37.63;;;;;;;;;;4990481;28;20026;-76
2023/04/10 08:11:31;;;;;;;38.10;34.13;;;;;;;;;;4995236;28;20032;-76
2023/04/10 08:14:01;;;;;;;43.05;38.45;;;;;;;;;;4995980;28;20178;-75
2023/04/10 08:16:31;;;;;;;36.15;32.47;;;;;;;;;;4993662;28;21197;-75
2023/04/10 08:18:56;;;;;;;;;;;;;;;;;;4994167;28;20025;-75
2023/04/10 08:21:22;;;;;;;45.83;40.87;;;;;;;;;;4985522;28;19927;-75
2023/04/10 08:23:50;;;;;;;41.22;37.00;;;;;;;;;;4997027;28;20035;-75
2023/04/10 08:26:15;;;;;;;57.22;51.22;;;;;;;;;;4993909;28;20033;-77
2023/04/10 08:28:45;;;;;;;47.20;42.28;;;;;;;;;;4997167;28;20033;-77
2023/04/10 08:31:11;;;;;;;39.10;34.40;;;;;;;;;;4995132;28;20029;-76
2023/04/10 08:33:36;;;;;;;40.13;35.85;;;;;;;;;;4996615;28;20076;-78
2023/04/10 08:36:02;;;;;;;39.38;35.33;;;;;;;;;;5010202;28;20018;-78
2023/04/10 08:38:27;;;;;;;38.30;34.38;;;;;;;;;;4994460;28;20037;-78
2023/04/10 08:40:53;;;;;;;34.13;30.70;;;;;;;;;;4984927;28;20030;-77
2023/04/10 08:43:18;;;;;;;56.00;49.70;;;;;;;;;;4980447;28;20026;-77
2023/04/10 08:45:44;;;;;;;49.50;44.17;;;;;;;;;;4981548;28;20026;-77
2023/04/10 08:48:10;;;;;;;58.30;51.85;;;;;;;;;;4982917;28;20060;-75
2023/04/10 08:50:40;;;;;;;64.47;57.67;;;;;;;;;;4998436;28;20029;-77
2023/04/10 08:53:09;;;;;;;37.83;33.97;;;;;;;;;;4981969;28;20464;-77
2023/04/10 08:55:34;;;;;;;;;;;;;;;;;;4982504;28;20335;-76
2023/04/10 08:58:00;;;;;;;27.00;24.33;;;;;;;;;;4982851;28;19916;-76
2023/04/10 09:00:26;;;;;;;40.05;35.67;;;;;;;;;;4984223;28;20247;-78
2023/04/10 09:02:56;;;;;;;28.15;25.40;;;;;;;;;;4979336;28;20454;-76
2023/04/10 09:05:23;;;;;;;36.70;32.15;;;;;;;;;;4981258;28;20084;-76
2023/04/10 09:07:48;;;;;;;27.48;24.88;;;;;;;;;;4981433;28;20065;-76
2023/04/10 09:10:14;;;;;;;34.80;29.80;;;;;;;;;;4983473;28;20064;-76
2023/04/10 09:12:43;;;;;;;28.50;25.40;;;;;;;;;;4983125;28;20453;-77
2023/04/10 09:15:09;;;;;;;44.95;39.75;;;;;;;;;;4980019;28;20353;-77
2023/04/10 09:17:34;;;;;;;28.75;25.58;;;;;;;;;;4982896;28;20022;-77
2023/04/10 09:20:00;;;;;;;27.05;24.27;;;;;;;;;;4982914;28;20445;-76
2023/04/10 09:22:30;;;;;;;22.02;19.85;;;;;;;;;;4983066;28;20121;-76
2023/04/10 09:24:55;;;;;;;24.88;20.35;;;;;;;;;;4981281;28;20107;-76
2023/04/10 09:27:34;;;;;;;43.42;37.80;;;;;;;;;;4979274;28;20049;-77
2023/04/10 09:29:59;;;;;;;25.60;23.03;;;;;;;;;;4982926;28;20042;-77
2023/04/10 09:32:44;;;;;;;29.85;26.67;;;;;;;;;;4998064;28;20040;-75
2023/04/10 09:35:10;;;;;;;20.90;18.90;;;;;;;;;;4981945;28;20037;-76
2023/04/10 09:37:36;;;;;;;22.83;20.63;;;;;;;;;;4983822;28;20076;-76
2023/04/10 09:40:02;;;;;;;23.83;21.30;;;;;;;;;;4993476;28;20739;-76
2023/04/10 09:42:35;;;;;;;21.35;19.15;;;;;;;;;;4994320;28;20064;-77
2023/04/10 09:45:01;;;;;;;20.05;18.05;;;;;;;;;;4996773;28;20437;-76
2023/04/10 09:47:27;;;;;;;21.17;19.05;;;;;;;;;;4988673;28;20093;-76
2023/04/10 09:49:56;;;;;;;23.30;20.90;;;;;;;;;;4986574;28;20034;-74
2023/04/10 09:52:25;;;;;;;18.95;17.05;;;;;;;;;;4997038;28;20476;-76
2023/04/10 09:54:52;;;;;;;19.00;17.00;;;;;;;;;;4998072;28;20381;-77
2023/04/10 09:57:18;;;;;;;21.55;19.35;;;;;;;;;;5001319;28;20132;-76
2023/04/10 09:59:48;;;;;;;22.15;20.00;;;;;;;;;;4998262;28;20033;-77
2023/04/10 10:02:13;;;;;;;20.10;18.30;;;;;;;;;;4994367;28;20030;-75
2023/04/10 10:04:39;;;;;;;19.10;17.20;;;;;;;;;;4997617;28;20072;-75
2023/04/10 10:07:05;;;;;;;17.38;15.68;;;;;;;;;;4993946;28;20025;-75
2023/04/10 10:09:30;;;;;;;17.60;15.85;;;;;;;;;;4999511;28;20061;-75
2023/04/10 10:11:57;;;;;;;18.23;16.33;;;;;;;;;;4999801;28;20040;-78
2023/04/10 10:14:24;;;;;;;16.90;15.18;;;;;;;;;;4998903;28;20084;-74
2023/04/10 10:16:51;;;;;;;16.38;14.90;;;;;;;;;;4998244;28;20014;-77
2023/04/10 10:19:20;;;;;;;15.13;13.63;;;;;;;;;;4999299;28;20068;-75
2023/04/10 10:21:46;;;;;;;15.55;14.18;;;;;;;;;;4997711;28;20508;-77
2023/04/10 10:24:12;;;;;;;16.40;14.70;;;;;;;;;;4995728;28;20030;-76
2023/04/10 10:26:41;;;;;;;14.85;12.98;;;;;;;;;;4997886;28;20175;-77
2023/04/10 10:29:09;;;;;;;17.23;15.52;;;;;;;;;;4994815;28;20026;-77
2023/04/10 10:31:36;;;;;;;27.83;24.77;;;;;;;;;;4997878;28;20128;-76
2023/04/10 10:34:04;;;;;;;31.55;28.52;;;;;;;;;;4998673;28;20025;-77
2023/04/10 10:36:30;;;;;;;19.67;17.88;;;;;;;;;;4988931;28;21115;-77
2023/04/10 10:38:58;;;;;;;33.55;30.10;;;;;;;;;;4985235;28;20030;-76
2023/04/10 10:41:28;;;;;;;17.70;16.10;;;;;;;;;;4992532;28;20030;-77
2023/04/10 10:43:53;;;;;;;;;;;;;;;;;;4976601;28;20034;-78
2023/04/10 10:46:39;;;;;;;25.03;22.63;;;;;;;;;;4976706;28;19983;-77
2023/04/10 10:49:04;;;;;;;16.10;14.52;;;;;;;;;;4972511;28;20061;-76
2023/04/10 10:51:49;;;;;;;17.98;16.38;;;;;;;;;;4976239;28;20112;-75
2023/04/10 10:54:30;;;;;;;18.63;16.92;;;;;;;;;;4974376;28;20018;-77
2023/04/10 10:56:56;;;;;;;22.25;20.15;;;;;;;;;;4982019;28;20026;-77
2023/04/10 10:59:40;;;;;;;20.65;18.65;;;;;;;;;;4973396;28;20049;-77
2023/04/10 11:02:14;;;;;;;23.60;21.33;;;;;;;;;;4972684;28;20031;-78
2023/04/10 11:04:44;;;;;;;22.13;19.95;;;;;;;;;;4972679;28;20057;-76
2023/04/10 11:07:10;;;;;;;20.77;18.55;;;;;;;;;;4974158;28;20040;-76
2023/04/10 11:09:51;;;;;;;22.05;19.80;;;;;;;;;;4975199;28;20644;-75
2023/04/10 11:12:23;;;;;;;29.27;26.17;;;;;;;;;;4972643;28;20034;-77
2023/04/10 11:14:56;;;;;;;39.20;33.22;;;;;;;;;;4977850;28;20030;-78
2023/04/10 11:17:45;;;;;;;26.25;23.65;;;;;;;;;;4975660;28;20046;-75
2023/04/10 11:20:10;;;;;;;26.90;21.27;;;;;;;;;;4978067;28;20030;-75
2023/04/10 11:22:56;;;;;;;24.13;21.67;;;;;;;;;;4983671;28;20087;-75
2023/04/10 11:25:21;;;;;;;33.42;29.83;;;;;;;;;;4980664;28;20539;-75
2023/04/10 11:27:51;;;;;;;29.48;26.38;;;;;;;;;;4981821;28;20121;-75
2023/04/10 11:30:30;;;;;;;23.63;21.33;;;;;;;;;;4981952;28;20033;-75
2023/04/10 11:32:56;;;;;;;32.45;29.00;;;;;;;;;;4980444;28;20026;-78
2023/04/10 11:35:21;;;;;;;22.73;20.52;;;;;;;;;;4978025;28;20045;-76
2023/04/10 11:37:47;;;;;;;23.20;21.20;;;;;;;;;;4976811;28;20125;-75
2023/04/10 11:40:12;;;;;;;19.90;18.10;;;;;;;;;;4980254;28;20055;-76
2023/04/10 11:42:38;;;;;;;24.20;21.73;;;;;;;;;;4993519;28;20030;-76
2023/04/10 11:45:26;;;;;;;20.73;18.77;;;;;;;;;;4992875;28;20033;-76
2023/04/10 11:47:54;;;;;;;23.58;21.40;;;;;;;;;;4990775;28;20046;-77
2023/04/10 11:50:20;;;;;;;22.15;20.15;;;;;;;;;;4996962;28;20033;-76
2023/04/10 11:52:49;;;;;;;20.38;18.45;;;;;;;;;;4993836;28;20041;-78
2023/04/10 11:55:15;;;;;;;26.60;24.00;;;;;;;;;;4996129;28;20033;-75
2023/04/10 11:57:40;;;;;;;25.10;22.73;;;;;;;;;;4997868;28;20022;-76
2023/04/10 12:00:07;;;;;;;21.00;19.20;;;;;;;;;;4996114;28;20030;-73
2023/04/10 12:02:32;;;;;;;17.73;16.02;;;;;;;;;;4986200;28;20100;-74
2023/04/10 12:04:57;;;;;;;19.88;17.88;;;;;;;;;;4993970;28;20105;-77
2023/04/10 12:07:24;;;;;;;15.48;13.88;;;;;;;;;;4993008;28;20030;-78
2023/04/10 12:09:56;;;;;;;17.52;15.93;;;;;;;;;;4995605;28;20030;-75
2023/04/10 12:12:33;;;;;;;15.45;14.05;;;;;;;;;;4996391;28;20030;-75
2023/04/10 12:14:58;;;;;;;19.13;17.13;;;;;;;;;;4994382;28;20030;-75
2023/04/10 12:17:23;;;;;;;25.23;22.50;;;;;;;;;;4994821;28;20040;-75
2023/04/10 12:19:49;;;;;;;19.48;17.67;;;;;;;;;;4995632;28;20033;-74
2023/04/10 12:22:14;;;;;;;22.98;20.77;;;;;;;;;;5001714;28;20032;-76
2023/04/10 12:24:39;;;;;;;25.05;22.65;;;;;;;;;;4995093;28;20446;-75
2023/04/10 12:27:05;;;;;;;21.17;19.07;;;;;;;;;;4997209;28;20157;-77
2023/04/10 12:29:30;;;;;;;15.02;13.43;;;;;;;;;;4993419;28;20290;-75
2023/04/10 12:31:55;;;;;;;11.60;10.50;;;;;;;;;;4994495;28;20033;-76
2023/04/10 12:34:21;;;;;;;11.73;10.70;;;;;;;;;;4996810;28;20850;-76
2023/04/10 12:36:51;;;;;;;10.80;9.73;;;;;;;;;;4991890;28;20029;-75
2023/04/10 12:39:23;;;;;;;11.77;10.77;;;;;;;;;;4994963;28;20033;-74
2023/04/10 12:41:48;;;;;;;13.85;12.65;;;;;;;;;;4992278;28;20029;-76
2023/04/10 12:44:14;;;;;;;17.13;15.45;;;;;;;;;;4982948;28;20095;-76
2023/04/10 12:46:40;;;;;;;17.00;15.18;;;;;;;;;;4981699;28;20369;-78
2023/04/10 12:49:13;;;;;;;20.27;18.17;;;;;;;;;;4982323;28;20026;-76
2023/04/10 12:51:46;;;;;;;19.00;17.25;;;;;;;;;;4993956;28;20427;-75
2023/04/10 12:54:32;;;;;;;24.10;21.90;;;;;;;;;;4993225;28;20121;-76
2023/04/10 12:56:57;;;;;;;15.75;14.25;;;;;;;;;;4981874;28;20144;-75
2023/04/10 12:59:23;;;;;;;16.13;14.30;;;;;;;;;;4983104;28;20038;-75
2023/04/10 13:01:48;;;;;;;18.33;16.52;;;;;;;;;;4982502;28;20030;-76
2023/04/10 13:04:14;;;;;;;13.50;12.18;;;;;;;;;;4984021;28;20022;-75
2023/04/10 13:06:43;;;;;;;10.57;9.57;;;;;;;;;;4981776;28;20030;-76
2023/04/10 13:09:08;;;;;;;9.77;8.88;;;;;;;;;;4992091;28;20025;-76
2023/04/10 13:11:34;;;;;;;9.95;9.05;;;;;;;;;;4996892;28;20041;-76
2023/04/10 13:13:59;;;;;;;9.98;8.88;;;;;;;;;;4996268;28;20100;-75
2023/04/10 13:16:25;;;;;;;10.18;9.27;;;;;;;;;;4991751;28;20428;-75
2023/04/10 13:18:50;;;;;;;10.00;9.15;;;;;;;;;;4992884;28;20029;-77
2023/04/10 13:21:21;;;;;;;11.10;10.07;;;;;;;;;;4993841;28;20034;-77
2023/04/10 13:23:46;;;;;;;13.38;12.07;;;;;;;;;;4994861;28;20092;-76
2023/04/10 13:26:12;;;;;;;10.90;9.90;;;;;;;;;;4993318;28;20038;-77
2023/04/10 13:28:37;;;;;;;14.70;13.30;;;;;;;;;;4986161;28;20021;-76
2023/04/10 13:31:02;;;;;;;18.85;17.05;;;;;;;;;;4990318;28;20527;-75
2023/04/10 13:33:28;;;;;;;15.00;13.60;;;;;;;;;;4985647;28;20029;-74
2023/04/10 13:35:53;;;;;;;14.10;12.85;;;;;;;;;;4998686;28;20433;-76
2023/04/10 13:38:18;;;;;;;28.42;25.67;;;;;;;;;;4997615;28;20037;-76
2023/04/10 13:40:44;;;;;;;14.52;13.23;;;;;;;;;;4995339;28;20033;-75
2023/04/10 13:43:09;;;;;;;12.05;10.95;;;;;;;;;;4999095;28;20080;-77
2023/04/10 13:45:34;;;;;;;11.65;10.45;;;;;;;;;;4988049;28;20444;-75
2023/04/10 13:48:00;;;;;;;10.80;9.80;;;;;;;;;;4986813;28;20111;-76
2023/04/10 13:50:25;;;;;;;12.10;11.00;;;;;;;;;;4994867;28;20053;-77
2023/04/10 13:52:50;;;;;;;13.55;12.30;;;;;;;;;;4996172;28;20441;-77
2023/04/10 13:55:16;;;;;;;13.10;11.70;;;;;;;;;;4997067;28;20029;-76
2023/04/10 13:57:41;;;;;;;11.48;10.45;;;;;;;;;;5013813;28;20682;-77
2023/04/10 14:00:07;;;;;;;11.88;10.77;;;;;;;;;;4998379;28;20045;-75
2023/04/10 14:02:32;;;;;;;13.38;12.05;;;;;;;;;;4996875;28;20100;-75
2023/04/10 14:04:58;;;;;;;12.27;11.07;;;;;;;;;;4996363;28;20805;-76
2023/04/10 14:07:23;;;;;;;12.30;11.10;;;;;;;;;;4996254;28;20029;-76
2023/04/10 14:09:48;;;;;;;11.10;10.20;;;;;;;;;;4995967;28;20034;-76
2023/04/10 14:12:18;;;;;;;9.38;8.57;;;;;;;;;;4996746;28;20026;-75
2023/04/10 14:14:43;;;;;;;9.15;8.45;;;;;;;;;;4991126;28;20030;-75